ALK127 VCBI-VOMM
Flight info
| Callsign | ALK127 |
|---|---|
| Flight time | 1h 7m |
| Altitude | 35000 |
| Route | ATETA1D ATETA DCT SAGOR DCT AKMIL DCT ARDAB |
| Aircraft | A20N/M-SDE2E3FGHIRWXY/LB1 |
Departure
| Time | 2026-04-24 15:37 |
|---|---|
| Airport | Bandaranaike International Colombo Airport (VCBI) |
Arrival
| Time | 2026-04-24 16:44 |
|---|---|
| Airport | Chennai International Airport (VOMM) |
| Time | Latitude | Longitude | Altitude | Speed | Heading |
|---|---|---|---|---|---|
| 2026-04-24 15:25 | 7.17507 | 79.88253 | 27 ft | 0 kts | 217° |
| 2026-04-24 15:27 | 7.17515 | 79.88259 | 27 ft | 2 kts | 216° |
| 2026-04-24 15:28 | 7.17563 | 79.88305 | 27 ft | 2 kts | 238° |
| 2026-04-24 15:29 | 7.17566 | 79.88334 | 27 ft | 1 kts | 306° |
| 2026-04-24 15:30 | 7.17565 | 79.88337 | 27 ft | 0 kts | 307° |
| 2026-04-24 15:33 | 7.17665 | 79.88259 | 27 ft | 11 kts | 25° |
| 2026-04-24 15:33 | 7.17929 | 79.88458 | 27 ft | 20 kts | 37° |
| 2026-04-24 15:34 | 7.18186 | 79.88654 | 27 ft | 25 kts | 37° |
| 2026-04-24 15:35 | 7.18575 | 79.88954 | 27 ft | 1 kts | 34° |
| 2026-04-24 15:35 | 7.18626 | 79.88933 | 28 ft | 7 kts | 309° |
| 2026-04-24 15:35 | 7.18662 | 79.88886 | 29 ft | 10 kts | 307° |
| 2026-04-24 15:36 | 7.18676 | 79.88808 | 29 ft | 15 kts | 234° |
| 2026-04-24 15:36 | 7.17886 | 79.88204 | 29 ft | 138 kts | 217° |
| 2026-04-24 15:36 | 7.16957 | 79.87502 | 319 ft | 180 kts | 216° |
| 2026-04-24 15:37 | 7.15954 | 79.86680 | 1076 ft | 197 kts | 220° |
| 2026-04-24 15:37 | 7.15076 | 79.85550 | 1808 ft | 219 kts | 246° |
| 2026-04-24 15:37 | 7.14882 | 79.83955 | 2417 ft | 245 kts | 278° |
| 2026-04-24 15:37 | 7.15492 | 79.82292 | 3162 ft | 260 kts | 298° |
| 2026-04-24 15:38 | 7.16612 | 79.80855 | 4090 ft | 264 kts | 323° |
| 2026-04-24 15:38 | 7.18235 | 79.80001 | 5092 ft | 264 kts | 346° |
| 2026-04-24 15:38 | 7.20035 | 79.79869 | 6034 ft | 265 kts | 11° |
| 2026-04-24 15:38 | 7.21734 | 79.80549 | 6905 ft | 266 kts | 37° |
| 2026-04-24 15:39 | 7.23264 | 79.81713 | 7217 ft | 281 kts | 39° |
| 2026-04-24 15:39 | 7.24812 | 79.82926 | 7360 ft | 282 kts | 39° |
| 2026-04-24 15:39 | 7.26364 | 79.84142 | 7492 ft | 282 kts | 39° |
| 2026-04-24 15:39 | 7.27920 | 79.85352 | 7618 ft | 283 kts | 39° |
| 2026-04-24 15:40 | 7.29486 | 79.86561 | 7738 ft | 283 kts | 38° |
| 2026-04-24 15:40 | 7.31056 | 79.87770 | 7848 ft | 284 kts | 38° |
| 2026-04-24 15:40 | 7.32615 | 79.88969 | 7954 ft | 285 kts | 38° |
| 2026-04-24 15:40 | 7.34193 | 79.90178 | 8057 ft | 287 kts | 37° |
| 2026-04-24 15:41 | 7.35979 | 79.91091 | 8486 ft | 292 kts | 18° |
| 2026-04-24 15:41 | 7.37983 | 79.91398 | 9457 ft | 293 kts | 2° |
| 2026-04-24 15:41 | 7.40040 | 79.91448 | 10293 ft | 298 kts | 2° |
| 2026-04-24 15:41 | 7.42186 | 79.91508 | 10672 ft | 321 kts | 2° |
| 2026-04-24 15:42 | 7.44479 | 79.91573 | 10934 ft | 343 kts | 2° |
| 2026-04-24 15:42 | 7.46904 | 79.91639 | 11558 ft | 351 kts | 2° |
| 2026-04-24 15:42 | 7.49366 | 79.91705 | 12363 ft | 355 kts | 2° |
| 2026-04-24 15:42 | 7.51851 | 79.91770 | 13127 ft | 359 kts | 2° |
| 2026-04-24 15:43 | 7.54370 | 79.91837 | 13862 ft | 363 kts | 2° |
| 2026-04-24 15:43 | 7.56920 | 79.91905 | 14523 ft | 367 kts | 2° |
| 2026-04-24 15:43 | 7.59458 | 79.91972 | 15172 ft | 371 kts | 2° |
| 2026-04-24 15:43 | 7.62064 | 79.92041 | 15808 ft | 375 kts | 2° |
| 2026-04-24 15:44 | 7.64699 | 79.92111 | 16439 ft | 379 kts | 2° |
| 2026-04-24 15:44 | 7.67356 | 79.92182 | 17050 ft | 383 kts | 2° |
| 2026-04-24 15:44 | 7.70038 | 79.92255 | 17652 ft | 387 kts | 2° |
| 2026-04-24 15:44 | 7.72740 | 79.92328 | 18228 ft | 391 kts | 2° |
| 2026-04-24 15:45 | 7.75442 | 79.92401 | 18751 ft | 393 kts | 2° |
| 2026-04-24 15:45 | 7.78198 | 79.92475 | 19301 ft | 396 kts | 2° |
| 2026-04-24 15:45 | 7.80967 | 79.92549 | 19834 ft | 398 kts | 3° |
| 2026-04-24 15:45 | 7.83747 | 79.92623 | 20373 ft | 401 kts | 3° |
| 2026-04-24 15:46 | 7.86546 | 79.92550 | 20897 ft | 405 kts | 356° |
| 2026-04-24 15:46 | 7.89348 | 79.92118 | 21423 ft | 409 kts | 351° |
| 2026-04-24 15:46 | 7.92151 | 79.91563 | 21939 ft | 412 kts | 351° |
| 2026-04-24 15:46 | 7.94977 | 79.91014 | 22456 ft | 415 kts | 351° |
| 2026-04-24 15:47 | 7.97794 | 79.90471 | 22960 ft | 418 kts | 351° |
| 2026-04-24 15:47 | 8.00658 | 79.89919 | 23462 ft | 421 kts | 351° |
| 2026-04-24 15:47 | 8.03544 | 79.89364 | 23866 ft | 424 kts | 351° |
| 2026-04-24 15:47 | 8.06459 | 79.88802 | 24263 ft | 427 kts | 351° |
| 2026-04-24 15:48 | 8.09395 | 79.88235 | 24652 ft | 431 kts | 351° |
| 2026-04-24 15:48 | 8.12357 | 79.87663 | 25039 ft | 434 kts | 351° |
| 2026-04-24 15:48 | 8.15335 | 79.87088 | 25421 ft | 437 kts | 350° |
| 2026-04-24 15:48 | 8.18337 | 79.86508 | 25795 ft | 440 kts | 350° |
| 2026-04-24 15:49 | 8.21324 | 79.85936 | 26166 ft | 443 kts | 350° |
| 2026-04-24 15:49 | 8.24374 | 79.85358 | 26533 ft | 446 kts | 350° |
| 2026-04-24 15:49 | 8.27435 | 79.84778 | 26887 ft | 449 kts | 350° |
| 2026-04-24 15:49 | 8.30526 | 79.84192 | 27238 ft | 452 kts | 350° |
| 2026-04-24 15:50 | 8.33599 | 79.83608 | 27571 ft | 455 kts | 350° |
| 2026-04-24 15:50 | 8.36730 | 79.83013 | 27912 ft | 458 kts | 350° |
| 2026-04-24 15:50 | 8.39872 | 79.82415 | 28236 ft | 460 kts | 350° |
| 2026-04-24 15:50 | 8.43029 | 79.81815 | 28560 ft | 463 kts | 350° |
| 2026-04-24 15:51 | 8.46213 | 79.81208 | 28888 ft | 465 kts | 350° |
| 2026-04-24 15:51 | 8.49369 | 79.80607 | 29183 ft | 468 kts | 350° |
| 2026-04-24 15:51 | 8.52580 | 79.79996 | 29509 ft | 470 kts | 350° |
| 2026-04-24 15:51 | 8.55813 | 79.79380 | 29829 ft | 473 kts | 350° |
| 2026-04-24 15:52 | 8.57960 | 79.78971 | 30024 ft | 474 kts | 350° |
| 2026-04-24 15:52 | 8.62319 | 79.78140 | 30401 ft | 477 kts | 349° |
| 2026-04-24 15:52 | 8.65495 | 79.77535 | 30663 ft | 480 kts | 349° |
| 2026-04-24 15:53 | 8.66731 | 79.77300 | 30766 ft | 481 kts | 349° |
| 2026-04-24 15:53 | 8.68411 | 79.76979 | 30902 ft | 482 kts | 349° |
| 2026-04-24 15:53 | 8.71664 | 79.76360 | 31234 ft | 483 kts | 349° |
| 2026-04-24 15:53 | 8.74975 | 79.75728 | 31607 ft | 483 kts | 349° |
| 2026-04-24 15:54 | 8.78278 | 79.75099 | 31958 ft | 483 kts | 349° |
| 2026-04-24 15:54 | 8.81580 | 79.74469 | 32298 ft | 483 kts | 349° |
| 2026-04-24 15:54 | 8.84888 | 79.73838 | 32639 ft | 483 kts | 349° |
| 2026-04-24 15:54 | 8.88198 | 79.73207 | 32976 ft | 484 kts | 349° |
| 2026-04-24 15:55 | 8.91516 | 79.72573 | 33295 ft | 484 kts | 349° |
| 2026-04-24 15:55 | 8.93712 | 79.72154 | 33517 ft | 484 kts | 349° |
| 2026-04-24 15:55 | 8.98109 | 79.71315 | 33932 ft | 484 kts | 349° |
| 2026-04-24 15:55 | 9.01434 | 79.70680 | 34214 ft | 484 kts | 349° |
| 2026-04-24 15:56 | 9.03625 | 79.70262 | 34443 ft | 483 kts | 348° |
| 2026-04-24 15:56 | 9.06928 | 79.69631 | 34759 ft | 481 kts | 348° |
| 2026-04-24 15:56 | 9.10228 | 79.69001 | 35048 ft | 481 kts | 348° |
| 2026-04-24 15:56 | 9.13514 | 79.68373 | 35343 ft | 480 kts | 348° |
| 2026-04-24 15:57 | 9.16759 | 79.67752 | 35644 ft | 479 kts | 348° |
| 2026-04-24 15:57 | 9.20039 | 79.67125 | 35948 ft | 478 kts | 348° |
| 2026-04-24 15:57 | 9.23309 | 79.66500 | 36249 ft | 477 kts | 348° |
| 2026-04-24 15:57 | 9.26585 | 79.65974 | 36527 ft | 477 kts | 355° |
| 2026-04-24 15:58 | 9.29916 | 79.65990 | 36773 ft | 478 kts | 5° |
| 2026-04-24 15:58 | 9.33191 | 79.66605 | 36856 ft | 478 kts | 16° |
| 2026-04-24 15:58 | 9.36302 | 79.67802 | 36874 ft | 478 kts | 27° |
| 2026-04-24 15:58 | 9.39145 | 79.69482 | 36875 ft | 478 kts | 33° |
| 2026-04-24 15:59 | 9.44783 | 79.73079 | 36873 ft | 478 kts | 32° |
| 2026-04-24 15:59 | 9.50389 | 79.76636 | 36868 ft | 478 kts | 32° |
| 2026-04-24 16:00 | 9.56037 | 79.80219 | 36871 ft | 478 kts | 32° |
| 2026-04-24 16:00 | 9.61685 | 79.83805 | 36867 ft | 478 kts | 32° |
| 2026-04-24 16:01 | 9.67331 | 79.87391 | 36869 ft | 478 kts | 32° |
| 2026-04-24 16:01 | 9.72954 | 79.90964 | 36877 ft | 479 kts | 32° |
| 2026-04-24 16:02 | 9.78601 | 79.94552 | 36869 ft | 479 kts | 32° |
| 2026-04-24 16:02 | 9.84250 | 79.98144 | 36870 ft | 479 kts | 32° |
| 2026-04-24 16:03 | 9.89878 | 80.01724 | 36874 ft | 480 kts | 32° |
| 2026-04-24 16:03 | 9.95556 | 80.05307 | 36870 ft | 480 kts | 29° |
| 2026-04-24 16:04 | 10.01779 | 80.07729 | 36870 ft | 479 kts | 11° |
| 2026-04-24 16:04 | 10.08352 | 80.08319 | 36867 ft | 478 kts | 359° |
| 2026-04-24 16:05 | 10.18361 | 80.08492 | 36871 ft | 479 kts | 359° |
| 2026-04-24 16:06 | 10.28344 | 80.08674 | 36873 ft | 480 kts | 359° |
| 2026-04-24 16:07 | 10.38386 | 80.08855 | 36873 ft | 481 kts | 359° |
| 2026-04-24 16:07 | 10.48389 | 80.09034 | 36872 ft | 481 kts | 359° |
| 2026-04-24 16:08 | 10.58449 | 80.09215 | 36873 ft | 481 kts | 359° |
| 2026-04-24 16:09 | 10.68463 | 80.09395 | 36869 ft | 482 kts | 359° |
| 2026-04-24 16:09 | 10.75180 | 80.09516 | 36867 ft | 482 kts | 359° |
| 2026-04-24 16:11 | 10.91861 | 80.09816 | 36368 ft | 476 kts | 359° |
| 2026-04-24 16:11 | 10.95171 | 80.09875 | 35794 ft | 475 kts | 359° |
| 2026-04-24 16:11 | 10.98477 | 80.09934 | 35152 ft | 474 kts | 359° |
| 2026-04-24 16:12 | 11.05080 | 80.10051 | 33835 ft | 474 kts | 0° |
| 2026-04-24 16:12 | 11.08383 | 80.10110 | 33056 ft | 475 kts | 0° |
| 2026-04-24 16:12 | 11.15041 | 80.10230 | 31364 ft | 479 kts | 0° |
| 2026-04-24 16:13 | 11.18346 | 80.10290 | 30532 ft | 482 kts | 0° |
| 2026-04-24 16:13 | 11.25050 | 80.10412 | 29161 ft | 476 kts | 0° |
| 2026-04-24 16:14 | 11.31589 | 80.10529 | 27971 ft | 465 kts | 0° |
| 2026-04-24 16:14 | 11.34800 | 80.10587 | 27378 ft | 459 kts | 0° |
| 2026-04-24 16:14 | 11.41149 | 80.10701 | 26206 ft | 450 kts | 0° |
| 2026-04-24 16:15 | 11.43215 | 80.10739 | 25820 ft | 448 kts | 0° |
| 2026-04-24 16:15 | 11.50395 | 80.10867 | 24521 ft | 438 kts | 1° |
| 2026-04-24 16:16 | 11.56404 | 80.10973 | 23525 ft | 428 kts | 1° |
| 2026-04-24 16:16 | 11.59403 | 80.11026 | 22957 ft | 423 kts | 1° |
| 2026-04-24 16:17 | 11.68116 | 80.11182 | 21167 ft | 412 kts | 2° |
| 2026-04-24 16:17 | 11.73764 | 80.11284 | 20049 ft | 405 kts | 2° |
| 2026-04-24 16:18 | 11.79351 | 80.11386 | 18984 ft | 397 kts | 2° |
| 2026-04-24 16:18 | 11.84832 | 80.11643 | 17869 ft | 390 kts | 10° |
| 2026-04-24 16:18 | 11.87458 | 80.12243 | 17342 ft | 383 kts | 18° |
| 2026-04-24 16:19 | 11.92347 | 80.14237 | 16286 ft | 374 kts | 24° |
| 2026-04-24 16:19 | 11.94709 | 80.15251 | 15778 ft | 369 kts | 24° |
| 2026-04-24 16:20 | 11.99390 | 80.17254 | 14766 ft | 362 kts | 24° |
| 2026-04-24 16:20 | 12.03996 | 80.19230 | 13782 ft | 355 kts | 24° |
| 2026-04-24 16:20 | 12.06273 | 80.20207 | 13252 ft | 352 kts | 24° |
| 2026-04-24 16:21 | 12.10741 | 80.22123 | 12213 ft | 345 kts | 24° |
| 2026-04-24 16:21 | 12.12939 | 80.23067 | 11710 ft | 341 kts | 24° |
| 2026-04-24 16:21 | 12.15119 | 80.24002 | 11320 ft | 334 kts | 24° |
| 2026-04-24 16:22 | 12.17239 | 80.24912 | 11168 ft | 337 kts | 25° |
| 2026-04-24 16:22 | 12.21578 | 80.26778 | 10936 ft | 336 kts | 25° |
| 2026-04-24 16:22 | 12.23725 | 80.27700 | 10633 ft | 333 kts | 25° |
| 2026-04-24 16:23 | 12.25852 | 80.28613 | 10257 ft | 327 kts | 25° |
| 2026-04-24 16:23 | 12.27908 | 80.29495 | 10126 ft | 312 kts | 25° |
| 2026-04-24 16:23 | 12.29850 | 80.30327 | 9969 ft | 293 kts | 25° |
| 2026-04-24 16:24 | 12.33346 | 80.31822 | 9671 ft | 256 kts | 24° |
| 2026-04-24 16:24 | 12.35003 | 80.32320 | 9531 ft | 241 kts | 14° |
| 2026-04-24 16:24 | 12.36609 | 80.32609 | 9296 ft | 229 kts | 14° |
| 2026-04-24 16:24 | 12.38172 | 80.32904 | 8836 ft | 229 kts | 14° |
| 2026-04-24 16:25 | 12.39755 | 80.33212 | 8461 ft | 231 kts | 14° |
| 2026-04-24 16:25 | 12.41311 | 80.33513 | 8183 ft | 229 kts | 14° |
| 2026-04-24 16:25 | 12.42880 | 80.33815 | 7884 ft | 229 kts | 14° |
| 2026-04-24 16:26 | 12.46021 | 80.34415 | 7283 ft | 229 kts | 14° |
| 2026-04-24 16:26 | 12.47587 | 80.34713 | 7000 ft | 228 kts | 14° |
| 2026-04-24 16:26 | 12.50693 | 80.35304 | 6446 ft | 228 kts | 14° |
| 2026-04-24 16:27 | 12.52256 | 80.35603 | 6168 ft | 228 kts | 14° |
| 2026-04-24 16:27 | 12.53819 | 80.35900 | 5885 ft | 228 kts | 14° |
| 2026-04-24 16:27 | 12.55383 | 80.36198 | 5608 ft | 228 kts | 14° |
| 2026-04-24 16:27 | 12.56939 | 80.36494 | 5325 ft | 227 kts | 14° |
| 2026-04-24 16:28 | 12.58505 | 80.36792 | 5021 ft | 229 kts | 14° |
| 2026-04-24 16:28 | 12.60067 | 80.37090 | 4785 ft | 227 kts | 14° |
| 2026-04-24 16:28 | 12.63158 | 80.37681 | 4252 ft | 227 kts | 13° |
| 2026-04-24 16:29 | 12.64705 | 80.37978 | 4061 ft | 224 kts | 13° |
| 2026-04-24 16:29 | 12.66261 | 80.38274 | 3999 ft | 227 kts | 14° |
| 2026-04-24 16:29 | 12.69170 | 80.38822 | 4001 ft | 206 kts | 14° |
| 2026-04-24 16:30 | 12.71917 | 80.39348 | 3990 ft | 184 kts | 14° |
| 2026-04-24 16:30 | 12.73105 | 80.39572 | 3989 ft | 167 kts | 14° |
| 2026-04-24 16:30 | 12.74207 | 80.39780 | 3999 ft | 159 kts | 15° |
| 2026-04-24 16:31 | 12.75308 | 80.39993 | 4000 ft | 159 kts | 15° |
| 2026-04-24 16:31 | 12.76390 | 80.40202 | 4001 ft | 158 kts | 15° |
| 2026-04-24 16:31 | 12.77481 | 80.40413 | 4002 ft | 159 kts | 15° |
| 2026-04-24 16:31 | 12.78555 | 80.40619 | 3996 ft | 158 kts | 14° |
| 2026-04-24 16:32 | 12.79277 | 80.40757 | 4002 ft | 160 kts | 15° |
| 2026-04-24 16:32 | 12.80737 | 80.41036 | 3997 ft | 159 kts | 14° |
| 2026-04-24 16:32 | 12.81827 | 80.41244 | 3998 ft | 159 kts | 14° |
| 2026-04-24 16:32 | 12.82917 | 80.41451 | 4008 ft | 159 kts | 14° |
| 2026-04-24 16:33 | 12.83998 | 80.41657 | 3999 ft | 158 kts | 14° |
| 2026-04-24 16:33 | 12.85071 | 80.41862 | 3994 ft | 158 kts | 14° |
| 2026-04-24 16:33 | 12.86156 | 80.42070 | 4002 ft | 159 kts | 14° |
| 2026-04-24 16:33 | 12.87243 | 80.42277 | 4002 ft | 159 kts | 14° |
| 2026-04-24 16:34 | 12.88316 | 80.42482 | 4000 ft | 159 kts | 14° |
| 2026-04-24 16:34 | 12.89407 | 80.42690 | 3997 ft | 158 kts | 14° |
| 2026-04-24 16:34 | 12.90499 | 80.42899 | 4003 ft | 161 kts | 15° |
| 2026-04-24 16:34 | 12.91606 | 80.43111 | 3999 ft | 161 kts | 14° |
| 2026-04-24 16:35 | 12.92693 | 80.43318 | 3995 ft | 158 kts | 14° |
| 2026-04-24 16:35 | 12.93782 | 80.43525 | 4000 ft | 161 kts | 15° |
| 2026-04-24 16:35 | 12.94863 | 80.43732 | 3997 ft | 158 kts | 15° |
| 2026-04-24 16:35 | 12.95952 | 80.43940 | 4001 ft | 160 kts | 15° |
| 2026-04-24 16:36 | 12.97048 | 80.44149 | 3997 ft | 160 kts | 15° |
| 2026-04-24 16:36 | 12.98142 | 80.44357 | 4001 ft | 160 kts | 13° |
| 2026-04-24 16:36 | 12.99231 | 80.44182 | 3902 ft | 163 kts | 329° |
| 2026-04-24 16:36 | 13.00139 | 80.43483 | 3716 ft | 163 kts | 321° |
| 2026-04-24 16:37 | 13.01007 | 80.42744 | 3490 ft | 165 kts | 320° |
| 2026-04-24 16:37 | 13.01892 | 80.41991 | 3299 ft | 165 kts | 321° |
| 2026-04-24 16:37 | 13.02490 | 80.41491 | 3144 ft | 164 kts | 321° |
| 2026-04-24 16:37 | 13.03673 | 80.40520 | 2843 ft | 163 kts | 321° |
| 2026-04-24 16:38 | 13.04562 | 80.39797 | 2630 ft | 163 kts | 321° |
| 2026-04-24 16:38 | 13.05450 | 80.39077 | 2429 ft | 161 kts | 319° |
| 2026-04-24 16:38 | 13.06138 | 80.38218 | 2294 ft | 149 kts | 289° |
| 2026-04-24 16:38 | 13.06331 | 80.37160 | 2307 ft | 158 kts | 263° |
| 2026-04-24 16:39 | 13.06151 | 80.36083 | 2302 ft | 152 kts | 249° |
| 2026-04-24 16:39 | 13.05816 | 80.35061 | 2301 ft | 149 kts | 245° |
| 2026-04-24 16:39 | 13.05448 | 80.34081 | 2307 ft | 149 kts | 244° |
| 2026-04-24 16:39 | 13.05081 | 80.33097 | 2312 ft | 142 kts | 244° |
| 2026-04-24 16:40 | 13.04740 | 80.32184 | 2298 ft | 134 kts | 243° |
| 2026-04-24 16:40 | 13.04401 | 80.31287 | 2304 ft | 138 kts | 244° |
| 2026-04-24 16:40 | 13.04058 | 80.30370 | 2307 ft | 137 kts | 244° |
| 2026-04-24 16:40 | 13.03714 | 80.29452 | 2226 ft | 137 kts | 245° |
| 2026-04-24 16:41 | 13.03374 | 80.28543 | 2049 ft | 136 kts | 244° |
| 2026-04-24 16:41 | 13.03034 | 80.27635 | 1888 ft | 137 kts | 244° |
| 2026-04-24 16:41 | 13.02697 | 80.26735 | 1715 ft | 132 kts | 244° |
| 2026-04-24 16:41 | 13.02372 | 80.25866 | 1557 ft | 131 kts | 244° |
| 2026-04-24 16:42 | 13.02151 | 80.25280 | 1426 ft | 134 kts | 244° |
| 2026-04-24 16:42 | 13.01707 | 80.24091 | 1227 ft | 135 kts | 245° |
| 2026-04-24 16:42 | 13.01499 | 80.23493 | 1056 ft | 131 kts | 245° |
| 2026-04-24 16:42 | 13.01219 | 80.22641 | 908 ft | 132 kts | 247° |
| 2026-04-24 16:43 | 13.00891 | 80.21746 | 801 ft | 133 kts | 244° |
| 2026-04-24 16:43 | 13.00529 | 80.20877 | 620 ft | 129 kts | 245° |
| 2026-04-24 16:43 | 13.00099 | 80.19755 | 310 ft | 131 kts | 246° |
| 2026-04-24 16:43 | 12.99872 | 80.19170 | 220 ft | 129 kts | 246° |
| 2026-04-24 16:44 | 12.99554 | 80.18317 | 93 ft | 129 kts | 245° |
| 2026-04-24 16:44 | 12.99231 | 80.17491 | 56 ft | 115 kts | 249° |
| 2026-04-24 16:44 | 12.99024 | 80.16919 | 54 ft | 56 kts | 249° |
| 2026-04-24 16:44 | 12.98916 | 80.16631 | 50 ft | 40 kts | 249° |
| 2026-04-24 16:45 | 12.98813 | 80.16421 | 53 ft | 19 kts | 231° |
| 2026-04-24 16:45 | 12.98721 | 80.16336 | 54 ft | 17 kts | 217° |
| 2026-04-24 16:45 | 12.98629 | 80.16327 | 55 ft | 12 kts | 144° |
| 2026-04-24 16:45 | 12.98624 | 80.16381 | 55 ft | 9 kts | 82° |
| 2026-04-24 16:46 | 12.98655 | 80.16463 | 54 ft | 16 kts | 68° |
| 2026-04-24 16:46 | 12.98700 | 80.16585 | 50 ft | 20 kts | 70° |
| 2026-04-24 16:46 | 12.98733 | 80.16709 | 56 ft | 8 kts | 114° |
| 2026-04-24 16:46 | 12.98715 | 80.16729 | 54 ft | 8 kts | 145° |
| 2026-04-24 16:47 | 12.98629 | 80.16764 | 50 ft | 16 kts | 168° |
| 2026-04-24 16:47 | 12.98562 | 80.16681 | 52 ft | 18 kts | 250° |
| 2026-04-24 16:47 | 12.98537 | 80.16615 | 52 ft | 1 kts | 241° |
| 2026-04-24 16:47 | 12.98525 | 80.16591 | 50 ft | 5 kts | 224° |
| 2026-04-24 16:48 | 12.98479 | 80.16593 | 53 ft | 6 kts | 155° |
| 2026-04-24 16:48 | 12.98450 | 80.16604 | 54 ft | 0 kts | 160° |